createdAt,value
2019-05-18T00:00:37.014Z,9.64
2019-05-18T00:03:05.264Z,9.62
2019-05-18T00:05:33.411Z,9.59
2019-05-18T00:08:01.659Z,9.55
2019-05-18T00:10:29.959Z,9.54
2019-05-18T00:12:57.483Z,9.52
2019-05-18T00:15:26.237Z,9.66
2019-05-18T00:17:54.561Z,9.62
2019-05-18T00:20:22.928Z,9.56
2019-05-18T00:22:51.513Z,9.54
2019-05-18T00:25:19.749Z,9.50
2019-05-18T00:27:48.038Z,9.48
2019-05-18T00:30:16.022Z,9.43
2019-05-18T00:32:44.683Z,9.40
2019-05-18T00:35:16.639Z,9.38
2019-05-18T00:37:44.545Z,9.35
2019-05-18T00:40:12.411Z,9.34
2019-05-18T00:42:41.091Z,9.33
2019-05-18T00:45:09.475Z,9.33
2019-05-18T00:47:41.831Z,9.34
2019-05-18T00:50:07.994Z,9.30
2019-05-18T00:52:36.181Z,9.29
2019-05-18T00:55:05.236Z,9.28
2019-05-18T00:57:33.747Z,9.25
2019-05-18T01:00:02.508Z,9.22
2019-05-18T01:02:30.741Z,9.19
2019-05-18T01:04:59.418Z,9.14
2019-05-18T01:07:27.042Z,9.11
2019-05-18T01:09:54.970Z,9.09
2019-05-18T01:12:23.132Z,9.06
2019-05-18T01:14:51.650Z,9.04
2019-05-18T01:17:19.918Z,9.04
2019-05-18T01:19:48.092Z,9.00
2019-05-18T01:22:18.500Z,9.03
2019-05-18T01:24:46.411Z,9.03
2019-05-18T01:27:14.676Z,9.03
2019-05-18T01:29:43.274Z,9.02
2019-05-18T01:32:11.506Z,9.02
2019-05-18T01:34:40.073Z,8.99
2019-05-18T01:37:08.481Z,8.91
2019-05-18T01:39:36.792Z,8.86
2019-05-18T01:42:05.080Z,8.86
2019-05-18T01:44:32.970Z,8.85
2019-05-18T01:47:01.743Z,8.82
2019-05-18T01:49:30.360Z,8.77
2019-05-18T01:51:58.928Z,8.70
2019-05-18T01:54:27.417Z,8.61
2019-05-18T01:56:55.687Z,8.54
2019-05-18T01:59:23.986Z,8.51
2019-05-18T02:01:52.140Z,8.45
2019-05-18T02:04:20.421Z,8.38
2019-05-18T02:06:48.703Z,8.36
2019-05-18T02:09:17.003Z,8.31
2019-05-18T02:11:45.668Z,8.26
2019-05-18T02:14:14.253Z,8.24
2019-05-18T02:16:42.462Z,8.12
2019-05-18T02:19:10.647Z,8.16
2019-05-18T02:21:39.334Z,7.95
2019-05-18T02:24:07.857Z,7.81
2019-05-18T02:26:35.720Z,7.67
2019-05-18T02:29:04.099Z,7.54
2019-05-18T02:31:32.731Z,7.48
2019-05-18T02:34:00.891Z,7.47
2019-05-18T02:36:28.805Z,7.42
2019-05-18T02:38:57.317Z,7.40
2019-05-18T02:41:25.546Z,7.41
2019-05-18T02:43:53.848Z,7.33
2019-05-18T02:46:22.470Z,7.30
2019-05-18T02:48:51.049Z,7.23
2019-05-18T02:51:19.275Z,7.15
2019-05-18T02:53:47.528Z,7.06
2019-05-18T02:56:16.100Z,7.00
2019-05-18T02:58:43.581Z,6.96
2019-05-18T03:01:11.479Z,6.91
2019-05-18T03:03:40.117Z,6.88
2019-05-18T03:06:08.822Z,6.88
2019-05-18T03:08:37.082Z,6.83
2019-05-18T03:11:05.392Z,6.79
2019-05-18T03:13:33.667Z,6.94
2019-05-18T03:16:01.855Z,6.82
2019-05-18T03:18:30.139Z,6.72
2019-05-18T03:20:58.743Z,6.60
2019-05-18T03:23:27.001Z,6.52
2019-05-18T03:25:55.191Z,6.49
2019-05-18T03:28:23.462Z,6.51
2019-05-18T03:30:52.188Z,6.45
2019-05-18T03:33:20.430Z,6.41
2019-05-18T03:35:48.691Z,6.38
2019-05-18T03:38:17.298Z,6.35
2019-05-18T03:40:45.807Z,6.30
2019-05-18T03:43:14.399Z,6.34
2019-05-18T03:45:42.769Z,6.33
2019-05-18T03:48:10.983Z,6.28
2019-05-18T03:50:39.179Z,6.24
2019-05-18T03:53:07.830Z,6.17
2019-05-18T03:55:36.332Z,6.13
2019-05-18T03:58:04.185Z,6.12
2019-05-18T04:00:32.771Z,6.09
2019-05-18T04:03:00.848Z,6.07
2019-05-18T04:05:29.638Z,6.05
2019-05-18T04:07:57.889Z,6.05
2019-05-18T04:10:26.234Z,6.08
2019-05-18T04:12:53.845Z,6.17
2019-05-18T04:15:22.233Z,6.26
2019-05-18T04:17:50.853Z,6.30
2019-05-18T04:20:19.013Z,6.28
2019-05-18T04:22:46.995Z,6.29
2019-05-18T04:25:14.948Z,6.26
2019-05-18T04:27:43.189Z,6.27
2019-05-18T04:30:11.424Z,6.30
2019-05-18T04:32:40.060Z,6.35
2019-05-18T04:35:07.913Z,6.39
2019-05-18T04:37:36.080Z,6.44
2019-05-18T04:40:05.081Z,6.52
2019-05-18T04:42:33.275Z,6.61
2019-05-18T04:45:01.529Z,6.69
2019-05-18T04:47:30.123Z,6.78
2019-05-18T04:50:05.324Z,6.92
2019-05-18T04:52:29.280Z,7.09
2019-05-18T04:54:57.619Z,7.27
2019-05-18T04:57:26.217Z,7.42
2019-05-18T04:59:54.857Z,7.54
2019-05-18T05:02:22.953Z,7.66
2019-05-18T05:04:53.908Z,7.79
2019-05-18T05:07:21.172Z,7.95
2019-05-18T05:09:49.630Z,8.15
2019-05-18T05:12:18.016Z,8.29
2019-05-18T05:14:46.230Z,8.40
2019-05-18T05:17:14.454Z,8.57
2019-05-18T05:19:45.270Z,8.73
2019-05-18T05:22:13.666Z,8.85
2019-05-18T05:24:42.218Z,8.93
2019-05-18T05:27:10.513Z,9.02
2019-05-18T05:29:38.798Z,9.13
2019-05-18T05:32:07.024Z,9.31
2019-05-18T05:34:35.159Z,9.45
2019-05-18T05:37:03.510Z,9.58
2019-05-18T05:39:31.730Z,9.71
2019-05-18T05:42:00.299Z,9.79
2019-05-18T05:44:28.605Z,9.87
2019-05-18T05:46:56.830Z,9.97
2019-05-18T05:49:24.347Z,10.03
2019-05-18T05:51:52.573Z,10.10
2019-05-18T05:54:21.138Z,10.18
2019-05-18T05:56:49.098Z,10.19
2019-05-18T05:59:16.632Z,10.19
2019-05-18T06:01:45.344Z,10.19
2019-05-18T06:04:13.218Z,10.21
2019-05-18T06:06:41.378Z,10.24
2019-05-18T06:09:10.083Z,10.26
2019-05-18T06:11:37.958Z,10.30
2019-05-18T06:14:06.653Z,10.31
2019-05-18T06:16:35.230Z,10.34
2019-05-18T06:19:03.765Z,10.40
2019-05-18T06:21:32.318Z,10.51
2019-05-18T06:24:01.042Z,10.57
2019-05-18T06:26:29.869Z,10.64
2019-05-18T06:28:58.556Z,10.65
2019-05-18T06:31:26.469Z,10.67
2019-05-18T06:33:54.743Z,10.70
2019-05-18T06:36:23.268Z,10.74
2019-05-18T06:38:51.609Z,10.79
2019-05-18T06:41:19.950Z,10.86
2019-05-18T06:43:48.007Z,10.89
2019-05-18T06:46:16.259Z,10.91
2019-05-18T06:48:44.538Z,10.94
2019-05-18T06:51:13.339Z,11.00
2019-05-18T06:53:41.848Z,11.12
2019-05-18T06:56:10.708Z,11.28
2019-05-18T06:58:40.564Z,11.38
2019-05-18T07:01:10.178Z,11.44
2019-05-18T07:03:38.549Z,11.56
2019-05-18T07:06:08.143Z,11.66
2019-05-18T07:08:36.454Z,11.88
2019-05-18T07:11:04.389Z,11.86
2019-05-18T07:13:32.252Z,11.77
2019-05-18T07:16:00.802Z,11.74
2019-05-18T07:18:29.039Z,11.85
2019-05-18T07:20:57.579Z,11.87
2019-05-18T07:23:26.117Z,11.84
2019-05-18T07:25:54.612Z,11.78
2019-05-18T07:28:23.292Z,11.83
2019-05-18T07:30:51.533Z,12.00
2019-05-18T07:33:20.268Z,12.22
2019-05-18T07:35:48.555Z,12.60
2019-05-18T07:38:16.477Z,12.95
2019-05-18T07:40:44.819Z,13.25
2019-05-18T07:43:13.407Z,13.54
2019-05-18T07:45:41.252Z,13.73
2019-05-18T07:48:09.757Z,13.97
2019-05-18T07:50:38.387Z,13.94
2019-05-18T07:53:06.977Z,13.95
2019-05-18T07:55:35.762Z,13.88
2019-05-18T07:58:04.597Z,13.93
2019-05-18T08:00:32.791Z,13.95
2019-05-18T08:03:00.418Z,13.93
2019-05-18T08:05:28.723Z,13.99
2019-05-18T08:07:56.720Z,14.02
2019-05-18T08:10:37.423Z,14.14
2019-05-18T08:13:06.019Z,14.19
2019-05-18T08:15:34.022Z,14.24
2019-05-18T08:18:01.996Z,14.34
2019-05-18T08:20:30.741Z,14.37
2019-05-18T08:22:59.199Z,14.31
2019-05-18T08:25:27.424Z,14.31
2019-05-18T08:27:55.778Z,14.37
2019-05-18T08:30:23.729Z,14.48
2019-05-18T08:32:51.774Z,14.57
2019-05-18T08:35:20.062Z,14.55
2019-05-18T08:37:48.304Z,14.55
2019-05-18T08:40:16.673Z,14.74
2019-05-18T08:42:44.995Z,14.77
2019-05-18T08:45:13.855Z,14.73
2019-05-18T08:47:41.747Z,14.96
2019-05-18T08:50:10.454Z,15.06
2019-05-18T08:52:38.963Z,15.09
2019-05-18T08:55:07.601Z,15.20
2019-05-18T08:57:35.943Z,15.20
2019-05-18T09:00:04.353Z,15.38
2019-05-18T09:02:32.938Z,15.29
2019-05-18T09:05:04.683Z,15.34
2019-05-18T09:07:31.863Z,15.34
2019-05-18T09:10:00.146Z,15.51
2019-05-18T09:12:28.707Z,15.48
2019-05-18T09:14:56.626Z,15.53
2019-05-18T09:17:24.911Z,15.93
2019-05-18T09:19:53.182Z,16.21
2019-05-18T09:22:23.274Z,16.21
2019-05-18T09:24:51.764Z,16.19
2019-05-18T09:27:20.548Z,16.09
2019-05-18T09:29:48.787Z,16.18
2019-05-18T09:32:17.083Z,16.37
2019-05-18T09:34:45.109Z,16.18
2019-05-18T09:37:13.005Z,16.05
2019-05-18T09:39:41.282Z,15.93
2019-05-18T09:42:08.912Z,15.77
2019-05-18T09:44:37.467Z,15.83
2019-05-18T09:47:05.503Z,15.89
2019-05-18T09:49:34.101Z,16.15
2019-05-18T09:52:02.633Z,16.44
2019-05-18T09:54:30.787Z,16.73
2019-05-18T09:56:59.050Z,16.74
2019-05-18T09:59:26.912Z,16.70
2019-05-18T10:01:54.888Z,16.81
2019-05-18T10:04:23.525Z,17.08
2019-05-18T10:06:52.133Z,17.14
2019-05-18T10:09:20.772Z,17.40
2019-05-18T10:11:49.180Z,17.53
2019-05-18T10:14:17.829Z,17.57
2019-05-18T10:16:46.460Z,17.83
2019-05-18T10:19:14.774Z,17.87
2019-05-18T10:21:43.173Z,17.86
2019-05-18T10:24:11.704Z,17.95
2019-05-18T10:26:39.943Z,18.16
2019-05-18T10:29:07.531Z,18.44
2019-05-18T10:31:35.742Z,18.57
2019-05-18T10:34:03.699Z,18.41
2019-05-18T10:36:32.305Z,18.02
2019-05-18T10:39:00.823Z,17.96
2019-05-18T10:41:29.443Z,18.61
2019-05-18T10:43:57.691Z,18.86
2019-05-18T10:46:25.615Z,19.27
2019-05-18T10:48:53.888Z,19.46
2019-05-18T10:51:21.804Z,19.53
2019-05-18T10:53:49.694Z,19.55
2019-05-18T10:56:17.996Z,19.71
2019-05-18T10:58:46.330Z,19.59
2019-05-18T11:01:14.988Z,19.56
2019-05-18T11:03:43.783Z,19.55
2019-05-18T11:06:12.063Z,19.40
2019-05-18T11:08:40.426Z,19.08
2019-05-18T11:11:09.068Z,18.46
2019-05-18T11:13:37.360Z,17.83
2019-05-18T11:16:06.071Z,17.41
2019-05-18T11:18:33.968Z,17.10
2019-05-18T11:21:02.274Z,16.86
2019-05-18T11:23:42.835Z,16.77
2019-05-18T11:26:00.582Z,16.69
2019-05-18T11:28:28.549Z,16.65
2019-05-18T11:30:56.433Z,16.58
2019-05-18T11:33:24.703Z,16.60
2019-05-18T11:35:52.973Z,16.67
2019-05-18T11:38:21.263Z,16.71
2019-05-18T11:40:49.969Z,16.72
2019-05-18T11:43:18.450Z,16.58
2019-05-18T11:45:46.732Z,16.47
2019-05-18T11:48:15.371Z,16.35
2019-05-18T11:53:10.562Z,15.88
2019-05-18T11:55:39.154Z,15.19
2019-05-18T11:58:07.041Z,14.66
2019-05-18T12:00:35.188Z,14.42
2019-05-18T12:03:03.442Z,14.17
2019-05-18T12:05:31.719Z,14.00
2019-05-18T12:08:00.496Z,13.93
2019-05-18T12:10:28.058Z,13.86
2019-05-18T12:12:56.345Z,13.76
2019-05-18T12:15:25.036Z,13.65
2019-05-18T12:17:53.304Z,13.55
2019-05-18T12:20:21.464Z,13.33
2019-05-18T12:22:50.078Z,12.94
2019-05-18T12:25:19.345Z,12.60
2019-05-18T12:27:47.726Z,12.34
2019-05-18T12:30:15.665Z,12.00
2019-05-18T12:32:44.076Z,11.60
2019-05-18T12:35:12.370Z,11.29
2019-05-18T12:37:40.977Z,11.08
2019-05-18T12:40:11.357Z,11.03
2019-05-18T12:42:40.008Z,10.93
2019-05-18T12:45:08.581Z,10.84
2019-05-18T12:47:36.799Z,10.95
2019-05-18T12:50:05.547Z,11.08
2019-05-18T12:52:33.751Z,11.17
2019-05-18T12:55:02.475Z,11.19
2019-05-18T12:57:31.098Z,11.10
2019-05-18T12:59:58.979Z,11.21
2019-05-18T13:02:27.268Z,11.26
2019-05-18T13:04:55.867Z,11.20
2019-05-18T13:07:23.730Z,11.17
2019-05-18T13:09:52.008Z,11.13
2019-05-18T13:12:20.681Z,11.24
2019-05-18T13:14:48.572Z,11.13
2019-05-18T13:17:17.257Z,11.04
2019-05-18T13:19:45.543Z,11.05
2019-05-18T13:22:13.824Z,11.29
2019-05-18T13:24:45.383Z,11.23
2019-05-18T13:27:12.979Z,11.13
2019-05-18T13:29:41.106Z,10.99
2019-05-18T13:32:09.308Z,10.98
2019-05-18T13:34:37.904Z,11.13
2019-05-18T13:37:06.194Z,10.97
2019-05-18T13:39:34.873Z,10.86
2019-05-18T13:42:03.033Z,10.84
2019-05-18T13:44:31.225Z,10.83
2019-05-18T13:46:59.519Z,10.73
2019-05-18T13:49:28.118Z,10.64
2019-05-18T13:51:56.335Z,10.55
2019-05-18T13:54:24.554Z,10.52
2019-05-18T13:56:52.738Z,10.43
2019-05-18T13:59:21.534Z,10.53
2019-05-18T14:01:49.748Z,10.46
2019-05-18T14:04:18.467Z,10.34
2019-05-18T14:06:47.068Z,10.18
2019-05-18T14:09:23.899Z,10.15
2019-05-18T14:12:02.044Z,10.07
2019-05-18T14:14:30.864Z,10.04
2019-05-18T14:17:00.101Z,10.06
2019-05-18T14:19:29.136Z,10.09
2019-05-18T14:21:57.148Z,10.21
2019-05-18T14:24:26.162Z,10.34
2019-05-18T14:26:54.338Z,10.50
2019-05-18T14:29:22.214Z,10.62
2019-05-18T14:31:50.198Z,10.68
2019-05-18T14:34:18.702Z,10.64
2019-05-18T14:36:47.097Z,10.68
2019-05-18T14:39:15.344Z,10.72
2019-05-18T14:41:43.936Z,10.74
2019-05-18T14:44:12.266Z,10.84
2019-05-18T14:46:39.800Z,10.99
2019-05-18T14:49:08.433Z,11.10
2019-05-18T14:51:37.050Z,11.25
2019-05-18T14:54:05.653Z,11.30
2019-05-18T14:56:34.370Z,11.39
2019-05-18T14:59:02.773Z,11.45
2019-05-18T15:01:31.209Z,11.53
2019-05-18T15:03:59.569Z,11.60
2019-05-18T15:06:27.072Z,11.63
2019-05-18T15:08:55.254Z,11.73
2019-05-18T15:11:23.197Z,11.83
2019-05-18T15:13:51.559Z,11.90
2019-05-18T15:16:19.567Z,12.00
2019-05-18T15:18:48.270Z,12.13
2019-05-18T15:21:16.942Z,12.19
2019-05-18T15:23:44.503Z,12.21
2019-05-18T15:26:11.695Z,12.22
2019-05-18T15:28:40.391Z,12.23
2019-05-18T15:31:09.065Z,12.28
2019-05-18T15:33:36.858Z,12.29
2019-05-18T15:36:05.343Z,12.26
2019-05-18T15:38:34.130Z,12.26
2019-05-18T15:41:02.927Z,12.27
2019-05-18T15:43:30.771Z,12.27
2019-05-18T15:45:58.696Z,12.29
2019-05-18T15:48:26.738Z,12.31
2019-05-18T15:50:55.284Z,12.35
2019-05-18T15:53:23.523Z,12.39
2019-05-18T15:56:04.856Z,12.40
2019-05-18T15:58:20.937Z,12.37
2019-05-18T16:00:48.746Z,12.33
2019-05-18T16:03:17.352Z,12.35
2019-05-18T16:05:45.599Z,12.31
2019-05-18T16:08:13.922Z,12.29
2019-05-18T16:10:42.513Z,12.25
2019-05-18T16:13:11.018Z,12.13
2019-05-18T16:15:39.295Z,12.12
2019-05-18T16:18:08.638Z,12.12
2019-05-18T16:20:37.483Z,12.10
2019-05-18T16:23:05.386Z,12.19
2019-05-18T16:25:33.658Z,12.04
2019-05-18T16:28:01.657Z,12.07
2019-05-18T16:30:30.196Z,12.09
2019-05-18T16:32:58.758Z,11.99
2019-05-18T16:35:27.331Z,11.91
2019-05-18T16:37:55.939Z,11.91
2019-05-18T16:40:24.554Z,11.91
2019-05-18T16:42:52.534Z,11.86
2019-05-18T16:45:21.139Z,11.84
2019-05-18T16:47:50.362Z,11.90
2019-05-18T16:50:20.070Z,11.97
2019-05-18T16:52:51.135Z,12.00
2019-05-18T16:55:20.042Z,12.02
2019-05-18T16:58:01.795Z,12.06
2019-05-18T17:00:30.269Z,12.11
2019-05-18T17:02:58.282Z,12.11
2019-05-18T17:05:26.443Z,12.07
2019-05-18T17:08:01.111Z,12.04
2019-05-18T17:10:29.064Z,12.03
2019-05-18T17:12:56.989Z,11.98
2019-05-18T17:15:25.234Z,11.98
2019-05-18T17:17:53.278Z,12.00
2019-05-18T17:20:21.993Z,12.02
2019-05-18T17:22:50.071Z,12.01
2019-05-18T17:25:18.356Z,11.92
2019-05-18T17:27:46.658Z,11.87
2019-05-18T17:30:14.971Z,11.87
2019-05-18T17:32:43.185Z,11.89
2019-05-18T17:35:11.203Z,11.88
2019-05-18T17:37:39.782Z,11.84
2019-05-18T17:40:09.522Z,11.82
2019-05-18T17:42:37.985Z,11.80
2019-05-18T17:45:06.384Z,11.79
2019-05-18T17:47:34.858Z,11.78
2019-05-18T17:50:02.959Z,11.77
2019-05-18T17:52:31.519Z,11.68
2019-05-18T17:54:59.803Z,11.63
2019-05-18T17:57:28.499Z,11.52
2019-05-18T17:59:56.780Z,11.43
2019-05-18T18:02:25.282Z,11.37
2019-05-18T18:04:54.329Z,11.31
2019-05-18T18:07:22.683Z,11.27
2019-05-18T18:09:51.356Z,11.24
2019-05-18T18:12:19.939Z,11.17
2019-05-18T18:14:48.167Z,11.08
2019-05-18T18:17:17.839Z,11.01
2019-05-18T18:19:46.463Z,10.94
2019-05-18T18:22:14.841Z,10.90
2019-05-18T18:24:43.379Z,10.85
2019-05-18T18:27:24.166Z,10.84
2019-05-18T18:29:41.745Z,10.78
2019-05-18T18:32:10.289Z,10.73
2019-05-18T18:34:38.838Z,10.69
2019-05-18T18:37:06.419Z,10.62
2019-05-18T18:39:34.736Z,10.58
2019-05-18T18:42:02.698Z,10.59
2019-05-18T18:44:31.296Z,10.55
2019-05-18T18:46:59.641Z,10.51
2019-05-18T18:49:28.161Z,10.45
2019-05-18T18:51:56.119Z,10.41
2019-05-18T18:54:24.504Z,10.38
2019-05-18T18:56:52.710Z,10.34
2019-05-18T18:59:21.530Z,10.31
2019-05-18T19:01:49.830Z,10.30
2019-05-18T19:04:17.858Z,10.27
2019-05-18T19:06:46.395Z,10.24
2019-05-18T19:09:14.813Z,10.21
2019-05-18T19:11:43.203Z,10.22
2019-05-18T19:14:11.508Z,10.19
2019-05-18T19:16:40.129Z,10.17
2019-05-18T19:19:08.554Z,10.17
2019-05-18T19:21:37.513Z,10.13
2019-05-18T19:24:05.433Z,10.07
2019-05-18T19:26:33.713Z,10.04
2019-05-18T19:29:01.634Z,9.99
2019-05-18T19:31:30.066Z,9.95
2019-05-18T19:33:58.854Z,9.90
2019-05-18T19:36:27.166Z,9.83
2019-05-18T19:38:55.323Z,9.80
2019-05-18T19:41:23.528Z,9.75
2019-05-18T19:43:52.085Z,9.75
2019-05-18T19:46:20.796Z,9.74
2019-05-18T19:48:49.472Z,10.14
2019-05-18T19:51:17.986Z,10.15
2019-05-18T19:53:46.257Z,10.00
2019-05-18T19:56:14.691Z,9.95
2019-05-18T19:58:42.208Z,9.89
2019-05-18T20:01:10.579Z,9.82
2019-05-18T20:03:38.858Z,9.74
2019-05-18T20:06:07.140Z,9.66
2019-05-18T20:08:35.739Z,9.60
2019-05-18T20:11:04.031Z,9.58
2019-05-18T20:13:32.294Z,9.56
2019-05-18T20:16:00.219Z,9.54
2019-05-18T20:18:28.814Z,9.52
2019-05-18T20:20:56.349Z,9.54
2019-05-18T20:23:24.980Z,9.53
2019-05-18T20:25:53.220Z,9.52
2019-05-18T20:28:24.076Z,9.53
2019-05-18T20:30:51.716Z,9.54
2019-05-18T20:33:20.181Z,9.54
2019-05-18T20:35:48.935Z,9.55
2019-05-18T20:38:17.194Z,9.57
2019-05-18T20:40:45.139Z,9.57
2019-05-18T20:43:13.715Z,9.58
2019-05-18T20:45:42.089Z,9.61
2019-05-18T20:48:10.394Z,9.63
2019-05-18T20:50:39.087Z,9.64
2019-05-18T20:53:07.353Z,9.67
2019-05-18T20:55:35.751Z,9.92
2019-05-18T20:58:04.461Z,10.12
2019-05-18T21:00:32.819Z,10.14
2019-05-18T21:03:03.166Z,9.96
2019-05-18T21:05:31.546Z,9.87
2019-05-18T21:07:59.489Z,9.80
2019-05-18T21:10:27.904Z,9.81
2019-05-18T21:12:56.599Z,9.77
2019-05-18T21:15:24.531Z,9.74
2019-05-18T21:17:53.128Z,9.74
2019-05-18T21:20:21.533Z,9.74
2019-05-18T21:22:49.722Z,9.77
2019-05-18T21:25:18.107Z,10.00
2019-05-18T21:27:47.164Z,10.17
2019-05-18T21:30:15.549Z,10.22
2019-05-18T21:32:44.031Z,10.23
2019-05-18T21:35:12.487Z,10.14
2019-05-18T21:37:41.305Z,10.20
2019-05-18T21:40:10.108Z,10.20
2019-05-18T21:42:39.166Z,10.15
2019-05-18T21:45:07.950Z,10.13
2019-05-18T21:47:36.873Z,10.23
2019-05-18T21:50:07.826Z,10.29
2019-05-18T21:52:36.590Z,10.29
2019-05-18T21:55:06.057Z,10.16
2019-05-18T21:57:34.365Z,10.08
2019-05-18T22:00:02.653Z,10.05
2019-05-18T22:02:30.594Z,9.98
2019-05-18T22:04:58.859Z,9.93
2019-05-18T22:07:27.187Z,9.93
2019-05-18T22:09:55.566Z,9.90
2019-05-18T22:12:24.170Z,9.91
2019-05-18T22:14:51.704Z,9.91
2019-05-18T22:17:19.980Z,10.00
2019-05-18T22:19:48.313Z,10.01
2019-05-18T22:22:16.882Z,10.25
2019-05-18T22:24:45.602Z,10.34
2019-05-18T22:27:13.738Z,10.34
2019-05-18T22:29:42.034Z,10.34
2019-05-18T22:32:09.804Z,10.34
2019-05-18T22:34:37.999Z,10.29
2019-05-18T22:37:06.308Z,10.30
2019-05-18T22:39:34.959Z,10.24
2019-05-18T22:42:02.934Z,10.12
2019-05-18T22:44:31.149Z,10.10
2019-05-18T22:46:58.984Z,10.00
2019-05-18T22:49:27.241Z,9.95
2019-05-18T22:51:55.446Z,9.91
2019-05-18T22:54:24.133Z,9.90
2019-05-18T22:56:52.416Z,9.86
2019-05-18T22:59:20.682Z,9.84
2019-05-18T23:01:49.390Z,9.84
2019-05-18T23:04:18.088Z,9.86
2019-05-18T23:06:46.661Z,9.83
2019-05-18T23:09:14.657Z,9.84
2019-05-18T23:11:43.235Z,9.82
2019-05-18T23:14:11.524Z,9.81
2019-05-18T23:16:39.888Z,9.79
2019-05-18T23:19:08.421Z,9.79
2019-05-18T23:21:36.664Z,9.76
2019-05-18T23:24:05.345Z,9.74
2019-05-18T23:26:33.973Z,9.71
2019-05-18T23:29:02.166Z,9.68
2019-05-18T23:31:30.113Z,9.64
2019-05-18T23:33:58.399Z,9.64
2019-05-18T23:36:26.613Z,9.65
2019-05-18T23:38:55.396Z,9.64
2019-05-18T23:41:24.053Z,9.62
2019-05-18T23:43:52.646Z,9.61
2019-05-18T23:46:21.230Z,9.58
2019-05-18T23:48:49.668Z,9.59
2019-05-18T23:51:18.375Z,9.57
2019-05-18T23:53:46.210Z,9.57
2019-05-18T23:56:14.464Z,9.56
2019-05-18T23:58:42.491Z,9.57
